Latest Weather Observations for Noonamah

IDD60901

Issued at 10:11 pm CST Tuesday 3 March 2015 (issued every 10 minutes, with the page automatically refreshed every 10 minutes)

About weather observations | Map of Darwin area stations | Latest observations for Darwin area | Other Formats
Station Details ID: 014314 Name: NOONAMAH AIRSTRIP Lat: -12.61 Lon: 131.05 Height: 17.5 m
Data from the previous 72 hours. | See also: Recent months for locations in Northern Territory
Date/Time
CST
Tmp

°C
App
Tmp
°C
Dew
Point
°C
Rel
Hum
%
Delta-T

°C
Wind Press
QNH
hPa
Press
MSL
hPa
Rain
since
9 am
mm
Dir
 
Spd
km/h
Gust
km/h
Spd
kts
Gust
kts
03/10:00pm 26.7 32.9 25.8 95 0.6 E 4 6 2 3 1006.7 1006.5 8.6
03/09:30pm 27.0 32.3 25.8 93 0.8 ENE 9 13 5 7 1006.6 1006.4 8.6
03/09:00pm 26.9 32.7 26.0 95 0.6 ENE 7 13 4 7 1006.1 1005.9 8.6
03/08:30pm 26.9 32.6 25.9 94 0.7 ENE 7 13 4 7 1005.7 1005.5 8.6
03/08:00pm 26.8 33.2 26.1 96 0.5 ESE 4 6 2 3 1005.8 1005.6 8.6
03/07:30pm 26.6 32.9 25.9 96 0.5 ESE 4 7 2 4 1005.4 1005.2 8.6
03/07:00pm 26.6 32.7 25.7 95 0.6 SE 4 6 2 3 1004.9 1004.7 8.6
03/06:30pm 26.4 32.0 25.5 95 0.6 ESE 6 7 3 4 1004.4 1004.2 8.6
03/06:00pm 25.9 29.7 24.1 90 1.2 ENE 11 20 6 11 1004.3 1004.1 8.6
03/05:30pm 28.4 32.9 25.2 83 2.3 NE 11 22 6 12 1004.0 1003.8 0.2
03/05:00pm 30.6 35.0 25.0 72 3.9 ENE 11 20 6 11 1003.6 1003.4 0.2
03/04:30pm 30.4 34.0 25.0 73 3.8 NE 15 26 8 14 1003.7 1003.5 0.2
03/04:00pm 30.2 33.6 25.3 75 3.5 ENE 17 26 9 14 1003.6 1003.4 0.2
03/03:30pm 30.2 34.2 25.0 73 3.7 ENE 13 19 7 10 1003.8 1003.6 0.2
03/03:00pm 29.7 34.1 25.7 79 2.8 ENE 13 20 7 11 1004.2 1004.0 0.2
03/02:30pm 28.9 33.6 26.1 85 2.0 ENE 13 19 7 10 1004.8 1004.6 0.2
03/02:00pm 28.0 33.3 25.8 88 1.6 E 9 15 5 8 1005.2 1005.0 0.2
03/01:30pm 27.2 31.7 25.2 89 1.4 ENE 11 24 6 13 1005.6 1005.4 0.2
03/01:00pm 28.5 32.7 25.3 83 2.3 N 13 20 7 11 1005.7 1005.5 0.0
03/12:30pm 30.0 33.4 24.6 73 3.8 ENE 15 22 8 12 1005.9 1005.7 0.0
03/12:00pm 29.9 33.8 24.3 72 3.9 NE 11 19 6 10 1006.3 1006.1 0.0
03/11:30am 29.4 33.5 24.5 75 3.4 ENE 11 17 6 9 1006.4 1006.2 0.0
03/11:00am 29.1 34.3 25.7 82 2.4 ENE 9 15 5 8 1006.7 1006.5 0.0
03/10:30am 28.7 33.5 25.1 81 2.5 ENE 9 17 5 9 1006.7 1006.5 0.0
03/10:00am 27.4 32.8 25.2 88 1.5 E 6 9 3 5 1006.7 1006.5 0.0
03/09:30am 27.1 31.8 24.9 88 1.5 E 9 13 5 7 1006.6 1006.4 0.0
03/09:00am 27.3 32.1 25.1 88 1.5 ESE 9 13 5 7 1006.1 1005.9 49.6
03/08:30am 26.3 31.1 25.1 93 0.8 ESE 9 17 5 9 1005.7 1005.5 49.6
03/08:00am 25.4 30.7 24.9 97 0.3 E 6 9 3 5 1005.3 1005.1 49.6
03/07:30am 24.8 29.8 24.5 98 0.2 E 6 7 3 4 1004.8 1004.6 49.6
03/07:00am 24.6 29.4 24.4 99 0.1 ESE 7 11 4 6 1004.5 1004.3 49.6
03/06:30am 24.4 29.0 24.2 99 0.1 ESE 7 11 4 6 1004.1 1003.9 49.6
03/06:00am 24.4 29.0 24.2 99 0.1 ESE 7 9 4 5 1003.7 1003.5 49.6
03/05:30am 24.5 29.8 24.3 99 0.1 ESE 4 6 2 3 1003.6 1003.4 49.6
03/05:00am 24.6 29.3 24.3 98 0.2 SE 7 9 4 5 1003.3 1003.1 49.6
03/04:30am 24.7 29.5 24.4 98 0.2 SE 7 9 4 5 1003.2 1003.0 49.6
03/04:00am 24.7 29.5 24.5 99 0.1 SE 7 13 4 7 1003.5 1003.3 49.6
03/03:30am 24.6 29.0 24.4 99 0.1 SE 9 13 5 7 1003.5 1003.3 49.6
03/03:00am 24.6 30.3 24.4 99 0.1 SSE 2 4 1 2 1003.7 1003.5 49.4
03/02:30am 24.5 30.5 24.3 99 0.1 CALM 0 0 0 0 1003.9 1003.7 49.4
03/02:00am 24.5 30.5 24.3 99 0.1 CALM 0 0 0 0 1004.3 1004.1 49.4
03/01:30am 24.5 30.1 24.3 99 0.1 SSW 2 4 1 2 1004.5 1004.3 49.4
03/01:00am 24.6 30.7 24.4 99 0.1 CALM 0 0 0 0 1004.8 1004.6 49.4
03/12:30am 24.4 30.0 24.2 99 0.1 SE 2 4 1 2 1005.0 1004.8 49.4
03/12:00am 24.5 29.8 24.3 99 0.1 SSW 4 6 2 3 1005.0 1004.8 49.4
 
Date/Time
CST
Tmp

°C
App
Tmp
°C
Dew
Point
°C
Rel
Hum
%
Delta-T

°C
Wind Press
QNH
hPa
Press
MSL
hPa
Rain
since
9 am
mm
Dir
 
Spd
km/h
Gust
km/h
Spd
kts
Gust
kts
02/11:30pm 24.5 30.5 24.3 99 0.1 CALM 0 0 0 0 1005.8 1005.6 48.8
02/11:00pm 24.5 29.8 24.3 99 0.1 SW 4 7 2 4 1005.7 1005.5 47.4
02/10:30pm 24.4 29.2 24.2 99 0.1 WSW 6 9 3 5 1005.5 1005.3 47.4
02/10:00pm 24.5 29.8 24.3 99 0.1 SW 4 6 2 3 1005.5 1005.3 47.2
02/09:30pm 24.4 30.0 24.2 99 0.1 SSE 2 4 1 2 1005.5 1005.3 47.2
02/09:00pm 24.4 30.0 24.2 99 0.1 S 2 4 1 2 1005.0 1004.8 47.0
02/08:30pm 24.5 29.1 24.2 98 0.2 S 7 13 4 7 1004.9 1004.7 44.4
02/08:00pm 24.9 29.4 24.6 98 0.2 SSE 9 11 5 6 1004.6 1004.4 36.6
02/07:30pm 24.9 29.8 24.4 97 0.3 WSW 6 7 3 4 1003.9 1003.7 36.4
02/07:00pm 24.8 29.8 24.5 98 0.2 WSW 6 7 3 4 1003.3 1003.1 36.4
02/06:30pm 24.6 28.9 24.3 98 0.2 WNW 9 13 5 7 1002.5 1002.3 36.4
02/06:00pm 24.7 28.7 24.4 98 0.2 NW 11 17 6 9 1002.6 1002.4 36.0
02/05:30pm 24.9 30.0 24.6 98 0.2 N 6 11 3 6 1003.1 1002.9 35.0
02/05:00pm 24.9 29.3 24.4 97 0.3 WNW 9 15 5 8 1002.8 1002.6 34.0
02/04:30pm 25.1 28.3 24.4 96 0.5 WNW 15 26 8 14 1002.8 1002.6 31.4
02/04:00pm 24.2 27.9 23.9 98 0.2 NNW 11 28 6 15 1002.9 1002.7 29.6
02/03:30pm 24.4 27.3 23.9 97 0.3 N 15 24 8 13 1002.9 1002.7 18.0
02/03:00pm 25.4 30.0 24.7 96 0.5 NW 9 17 5 9 1003.1 1002.9 6.4
02/02:30pm 25.9 29.6 24.5 92 1.0 WNW 13 24 7 13 1003.0 1002.8 3.4
02/02:00pm 28.2 32.4 24.8 82 2.4 WNW 11 17 6 9 1003.5 1003.3 0.2
02/01:30pm 28.8 32.6 24.1 76 3.3 WNW 11 17 6 9 1004.0 1003.8 0.2
02/01:00pm 29.3 33.3 24.4 75 3.4 WNW 11 26 6 14 1004.3 1004.1 0.2
02/12:30pm 30.7 37.1 26.6 79 2.9 SSW 6 9 3 5 1004.7 1004.5 0.2
02/12:00pm 30.5 37.3 26.7 80 2.7 SSW 4 6 2 3 1005.3 1005.1 0.2
02/11:30am 29.9 37.4 27.1 85 2.0 S 2 6 1 3 1005.9 1005.7 0.2
02/11:00am 29.6 36.2 27.0 86 1.9 ESE 6 7 3 4 1006.0 1005.8 0.0
02/10:30am 28.8 35.4 27.0 90 1.3 SE 6 9 3 5 1006.1 1005.9 0.0
02/10:00am 28.5 35.6 27.1 92 1.0 SE 4 7 2 4 1006.6 1006.4 0.0
02/09:30am 27.9 34.2 26.8 94 0.8 ESE 7 9 4 5 1006.5 1006.3 0.0
02/09:00am 27.5 34.4 26.8 96 0.5 ESE 4 4 2 2 1006.5 1006.3 17.6
02/08:30am 27.1 33.8 26.6 97 0.4 SE 4 7 2 4 1006.0 1005.8 17.6
02/08:00am 26.8 33.1 26.5 98 0.2 SE 6 9 3 5 1005.9 1005.7 17.6
02/07:30am 26.6 33.2 26.4 99 0.1 ESE 4 6 2 3 1005.6 1005.4 17.6
02/07:00am 26.6 33.5 26.3 98 0.2 ESE 2 4 1 2 1005.2 1005.0 17.6
02/06:30am 26.6 33.6 26.4 99 0.1 E 2 2 1 1 1004.9 1004.7 17.6
02/06:00am 26.6 34.0 26.4 99 0.1 CALM 0 0 0 0 1004.5 1004.3 17.6
02/05:30am 26.5 33.8 26.3 99 0.1 CALM 0 0 0 0 1004.4 1004.2 17.6
02/05:00am 26.5 33.7 26.2 98 0.2 CALM 0 0 0 0 1004.2 1004.0 17.6
02/04:30am 26.5 33.7 26.2 98 0.2 CALM 0 0 0 0 1004.1 1003.9 17.6
02/04:00am 26.4 33.6 26.1 98 0.2 CALM 0 0 0 0 1004.0 1003.8 17.6
02/03:30am 26.4 33.6 26.1 98 0.2 CALM 0 0 0 0 1003.8 1003.6 17.6
02/03:00am 26.5 33.7 26.2 98 0.2 CALM 0 0 0 0 1004.1 1003.9 17.6
02/02:30am 26.5 33.7 26.2 98 0.2 CALM 0 0 0 0 1004.5 1004.3 17.6
02/02:00am 26.5 33.6 26.0 97 0.4 CALM 0 0 0 0 1005.0 1004.8 17.6
02/01:30am 26.6 33.6 25.9 96 0.5 CALM 0 0 0 0 1005.6 1005.4 17.6
02/01:00am 26.7 33.0 26.0 96 0.5 SSW 4 6 2 3 1006.2 1006.0 17.6
02/12:30am 27.0 33.5 26.3 96 0.5 S 4 6 2 3 1006.6 1006.4 17.6
02/12:00am 27.1 33.8 26.6 97 0.4 SW 4 6 2 3 1006.4 1006.2 17.6
 
Date/Time
CST
Tmp

°C
App
Tmp
°C
Dew
Point
°C
Rel
Hum
%
Delta-T

°C
Wind Press
QNH
hPa
Press
MSL
hPa
Rain
since
9 am
mm
Dir
 
Spd
km/h
Gust
km/h
Spd
kts
Gust
kts
01/11:30pm 27.2 34.4 26.7 97 0.4 WNW 2 4 1 2 1006.8 1006.6 17.6
01/11:00pm 27.1 34.1 26.4 96 0.5 WSW 2 4 1 2 1006.6 1006.4 17.6
01/10:30pm 27.0 33.5 26.3 96 0.5 W 4 6 2 3 1006.5 1006.3 17.6
01/10:00pm 27.1 33.2 26.2 95 0.6 NNW 6 9 3 5 1006.7 1006.5 17.4
01/09:30pm 27.2 33.2 26.3 95 0.6 NNE 7 9 4 5 1006.9 1006.7 17.4
01/09:00pm 28.3 34.8 26.3 89 1.4 NW 4 6 2 3 1006.6 1006.4 16.6
01/08:30pm 28.7 35.0 25.9 85 2.0 W 4 7 2 4 1006.4 1006.2 16.6
01/08:00pm 29.1 34.9 26.1 84 2.1 W 7 11 4 6 1005.7 1005.5 16.6
01/07:30pm 28.6 34.7 26.2 87 1.7 NW 6 6 3 3 1004.4 1004.2 16.6
01/07:00pm 29.0 34.4 25.2 80 2.7 NW 6 7 3 4 1004.6 1004.4 16.6
01/06:30pm 29.5 34.2 25.0 77 3.2 W 9 15 5 8 1004.6 1004.4 16.6
01/06:00pm 29.8 34.1 25.5 78 3.0 WNW 13 20 7 11 1003.7 1003.5 16.6
01/05:30pm 29.9 33.4 25.4 77 3.2 W 17 24 9 13 1003.1 1002.9 16.6
01/05:00pm 30.4 34.8 26.3 79 2.9 NW 15 26 8 14 1003.2 1003.0 16.6
01/04:30pm 30.4 35.0 25.9 77 3.2 NW 13 20 7 11 1003.5 1003.3 16.6
01/04:00pm 29.3 34.9 26.3 84 2.1 WNW 9 15 5 8 1003.4 1003.2 16.6
01/03:30pm 26.6 31.8 24.8 90 1.3 NW 6 9 3 5 1003.8 1003.6 16.6
01/03:00pm 26.0 29.7 25.1 95 0.6 NW 15 30 8 16 1004.0 1003.8 16.6
01/02:30pm 27.8 32.9 26.2 91 1.1 NNW 11 15 6 8 1004.2 1004.0 4.8
01/02:00pm 31.9 36.0 25.7 69 4.4 W 15 24 8 13 1004.2 1004.0 0.0
01/01:30pm 32.7 38.4 26.5 70 4.5 WNW 9 15 5 8 1004.8 1004.6 0.0
01/01:00pm 32.5 37.5 26.6 71 4.2 NW 13 17 7 9 1005.3 1005.1 0.0
01/12:30pm 32.5 38.1 26.3 70 4.5 WNW 9 17 5 9 1006.1 1005.9 0.0
01/12:00pm 31.6 37.4 26.6 75 3.6 NW 9 20 5 11 1006.5 1006.3 0.0
01/11:30am 32.2 37.8 26.3 71 4.2 WNW 9 17 5 9 1006.7 1006.5 0.0
01/11:00am 31.6 37.6 26.4 74 3.7 W 7 13 4 7 1006.9 1006.7 0.0
01/10:30am 31.0 37.4 26.7 78 3.1 WNW 6 9 3 5 1007.1 1006.9 0.0
01/10:00am 30.7 36.4 26.4 78 3.1 W 9 15 5 8 1007.1 1006.9 0.0
01/09:30am 29.9 36.0 26.5 82 2.4 W 7 11 4 6 1007.1 1006.9 0.0
01/09:00am 29.7 35.9 26.7 84 2.2 WSW 7 11 4 6 1007.1 1006.9 22.6
01/08:30am 28.6 35.0 26.6 89 1.4 WSW 6 9 3 5 1007.0 1006.8 22.6
01/08:00am 27.6 33.9 26.5 94 0.8 WSW 6 9 3 5 1006.4 1006.2 22.6
01/07:30am 26.9 33.1 26.4 97 0.4 SW 6 7 3 4 1005.9 1005.7 22.6
01/07:00am 26.3 33.1 26.1 99 0.1 WSW 2 6 1 3 1005.7 1005.5 22.6
01/06:30am 26.2 33.3 26.0 99 0.1 CALM 0 0 0 0 1005.5 1005.3 22.6
01/06:00am 26.2 32.5 25.9 98 0.2 NNW 4 4 2 2 1005.0 1004.8 22.6
01/05:30am 26.4 33.2 26.2 99 0.1 NW 2 4 1 2 1005.0 1004.8 22.6
01/05:00am 26.3 33.1 26.1 99 0.1 WNW 2 4 1 2 1004.7 1004.5 22.6
01/04:30am 26.1 32.4 25.9 99 0.1 NW 4 4 2 2 1004.6 1004.4 22.6
01/04:00am 26.1 33.1 25.8 98 0.2 CALM 0 4 0 2 1004.9 1004.7 22.6
01/03:30am 26.2 33.2 25.9 98 0.2 CALM 0 2 0 1 1005.0 1004.8 22.6
01/03:00am 26.4 33.2 26.2 99 0.1 NNW 2 2 1 1 1005.4 1005.2 22.6
01/02:30am 26.3 32.7 26.1 99 0.1 W 4 9 2 5 1005.2 1005.0 22.6
01/02:00am 26.2 32.9 26.0 99 0.1 NW 2 2 1 1 1005.9 1005.7 22.6
01/01:30am 26.2 32.5 26.0 99 0.1 W 4 6 2 3 1006.1 1005.9 22.6
01/01:00am 26.1 33.1 25.9 99 0.1 CALM 0 0 0 0 1006.2 1006.0 22.6
01/12:30am 26.0 32.6 25.8 99 0.1 W 2 4 1 2 1006.4 1006.2 22.6
01/12:00am 25.8 32.6 25.5 98 0.2 CALM 0 0 0 0 1007.3 1007.1 22.6
 
Date/Time
CST
Tmp

°C
App
Tmp
°C
Dew
Point
°C
Rel
Hum
%
Delta-T

°C
Wind Press
QNH
hPa
Press
MSL
hPa
Rain
since
9 am
mm
Dir
 
Spd
km/h
Gust
km/h
Spd
kts
Gust
kts
28/11:30pm 25.6 32.2 25.3 98 0.2 CALM 0 0 0 0 1007.7 1007.5 22.6
28/11:00pm 25.5 31.3 25.2 98 0.2 W 4 6 2 3 1007.6 1007.4 22.6
28/10:30pm 25.4 31.5 25.1 98 0.2 WNW 2 4 1 2 1007.4 1007.2 22.6

Latest Capital City Observations: Canberra | Sydney | Melbourne | Brisbane | Adelaide | Perth | Hobart | Darwin

Other Formats:

Comma delimited format used in spreadsheet applications
http://www.bom.gov.au/fwo/IDD60901/IDD60901.94105.axf

JavaScript Object Notation format (JSON) in row-major order
http://www.bom.gov.au/fwo/IDD60901/IDD60901.94105.json